createdAt,value
2024-01-11T04:39:52.165Z,-6.94
2024-01-11T04:42:55.635Z,-6.94
2024-01-11T04:45:58.560Z,-7.38
2024-01-11T04:49:01.849Z,-7.35
2024-01-11T04:52:04.792Z,-7.34
2024-01-11T04:55:08.198Z,-7.35
2024-01-11T04:58:10.840Z,-7.34
2024-01-11T05:01:18.593Z,-7.21
2024-01-11T05:04:21.750Z,-7.18
2024-01-11T05:07:28.842Z,-7.14
2024-01-11T05:10:31.686Z,-7.09
2024-01-11T05:13:34.887Z,-7.04
2024-01-11T05:16:37.517Z,-7.02
2024-01-11T05:19:40.390Z,-7.01
2024-01-11T05:22:43.071Z,-7.05
2024-01-11T05:25:46.354Z,-7.00
2024-01-11T05:28:49.614Z,-6.93
2024-01-11T05:31:52.873Z,-6.93
2024-01-11T05:34:55.993Z,-6.92
2024-01-11T05:37:59.407Z,-6.94
2024-01-11T05:41:03.082Z,-6.96
2024-01-11T05:44:06.554Z,-6.93
2024-01-11T05:47:09.460Z,-6.92
2024-01-11T05:50:13.861Z,-6.91
2024-01-11T05:53:18.287Z,-6.89
2024-01-11T05:56:21.929Z,-6.97
2024-01-11T05:59:24.768Z,-6.99
2024-01-11T06:02:28.403Z,-6.95
2024-01-11T06:05:34.742Z,-6.88
2024-01-11T06:08:38.099Z,-6.72
2024-01-11T06:11:41.755Z,-6.76
2024-01-11T06:14:44.890Z,-6.77
2024-01-11T06:17:48.275Z,-6.82
2024-01-11T06:20:51.753Z,-6.79
2024-01-11T06:23:54.742Z,-6.84
2024-01-11T06:26:57.540Z,-6.83
2024-01-11T06:30:00.470Z,-6.81
2024-01-11T06:33:04.648Z,-6.75
2024-01-11T06:36:08.964Z,-6.80
2024-01-11T06:39:11.697Z,-6.75
2024-01-11T06:42:15.674Z,-6.72
2024-01-11T06:45:18.633Z,-6.67
2024-01-11T06:48:22.224Z,-6.64
2024-01-11T06:51:25.449Z,-6.59
2024-01-11T06:54:28.455Z,-6.52
2024-01-11T06:57:31.296Z,-6.32
2024-01-11T07:00:34.202Z,-6.20
2024-01-11T07:03:38.092Z,-6.08
2024-01-11T07:06:41.398Z,-5.96
2024-01-11T07:09:44.175Z,-5.85
2024-01-11T07:12:49.927Z,-5.69
2024-01-11T07:15:53.624Z,-5.45
2024-01-11T07:18:59.215Z,-5.26
2024-01-11T07:22:02.327Z,-5.06
2024-01-11T07:25:05.496Z,-4.84
2024-01-11T07:28:08.456Z,-4.66
2024-01-11T07:31:12.175Z,-4.45
2024-01-11T07:34:15.253Z,-4.12
2024-01-11T07:37:18.591Z,-3.74
2024-01-11T07:40:21.238Z,-3.53
2024-01-11T07:43:27.003Z,-3.32
2024-01-11T07:46:39.370Z,-3.14
2024-01-11T07:49:49.578Z,-2.96
2024-01-11T07:52:52.196Z,-2.77
2024-01-11T07:55:55.241Z,-2.39
2024-01-11T07:58:58.264Z,-1.91
2024-01-11T08:02:03.668Z,-1.64
2024-01-11T08:05:07.255Z,-1.60
2024-01-11T08:08:10.213Z,-1.54
2024-01-11T08:11:13.571Z,-1.46
2024-01-11T08:14:16.983Z,-1.30
2024-01-11T08:17:20.315Z,-1.11
2024-01-11T08:20:23.341Z,-0.97
2024-01-11T08:23:26.617Z,-0.84
2024-01-11T08:26:29.626Z,-0.55
2024-01-11T08:29:34.563Z,-0.47
2024-01-11T08:32:40.893Z,-0.27
2024-01-11T08:35:44.142Z,-0.14
2024-01-11T08:38:47.324Z,-0.27
2024-01-11T08:41:51.524Z,-0.07
2024-01-11T08:44:54.494Z,0.14
2024-01-11T08:47:58.091Z,0.40
2024-01-11T08:51:01.134Z,1.06
2024-01-11T08:54:05.523Z,2.65
2024-01-11T08:57:08.898Z,3.89
2024-01-11T09:00:13.186Z,3.26
2024-01-11T09:03:18.205Z,2.58
2024-01-11T09:06:21.763Z,2.18
2024-01-11T09:09:24.542Z,2.03
2024-01-11T09:12:27.359Z,1.87
2024-01-11T09:15:30.245Z,1.54
2024-01-11T09:18:33.496Z,1.45
2024-01-11T09:21:36.367Z,1.39
2024-01-11T09:24:40.349Z,1.40
2024-01-11T09:27:43.337Z,1.65
2024-01-11T09:30:46.244Z,1.88
2024-01-11T09:33:51.143Z,2.08
2024-01-11T09:36:54.533Z,1.97
2024-01-11T09:39:57.177Z,1.93
2024-01-11T09:43:01.899Z,1.84
2024-01-11T09:46:09.015Z,1.85
2024-01-11T09:49:12.755Z,1.82
2024-01-11T09:52:17.154Z,1.84
2024-01-11T09:55:20.305Z,1.91
2024-01-11T09:58:23.522Z,2.04
2024-01-11T10:01:27.614Z,2.07
2024-01-11T10:04:31.367Z,2.18
2024-01-11T10:07:35.185Z,2.29
2024-01-11T10:10:39.559Z,2.62
2024-01-11T10:13:43.185Z,2.66
2024-01-11T10:16:46.472Z,2.61
2024-01-11T10:19:49.436Z,2.42
2024-01-11T10:22:53.766Z,2.24
2024-01-11T10:26:00.884Z,2.09
2024-01-11T10:29:04.904Z,2.18
2024-01-11T10:32:07.929Z,2.36
2024-01-11T10:35:11.421Z,2.42
2024-01-11T10:38:20.311Z,2.42
2024-01-11T10:41:23.672Z,2.33
2024-01-11T10:44:31.778Z,2.25
2024-01-11T10:47:37.737Z,2.07
2024-01-11T10:50:47.193Z,2.15
2024-01-11T10:53:52.858Z,2.16
2024-01-11T10:56:56.830Z,2.15
2024-01-11T11:00:04.425Z,2.15
2024-01-11T11:03:08.566Z,2.09
2024-01-11T11:06:14.114Z,2.21
2024-01-11T11:09:19.558Z,2.23
2024-01-11T11:12:23.322Z,2.31
2024-01-11T11:15:29.189Z,2.45
2024-01-11T11:18:36.465Z,2.55
2024-01-11T11:21:47.519Z,2.42
2024-01-11T11:25:06.579Z,2.45
2024-01-11T11:28:09.596Z,2.50
2024-01-11T11:31:15.543Z,2.50
2024-01-11T11:34:21.041Z,2.43
2024-01-11T11:37:25.256Z,2.26
2024-01-11T11:40:39.799Z,2.07
2024-01-11T11:43:42.861Z,2.07
2024-01-11T11:46:47.712Z,2.07
2024-01-11T11:50:01.017Z,1.95
2024-01-11T11:53:04.234Z,2.02
2024-01-11T11:56:08.120Z,1.91
2024-01-11T11:59:10.847Z,1.95
2024-01-11T12:02:18.263Z,1.98
2024-01-11T12:05:24.060Z,2.02
2024-01-11T12:08:30.879Z,2.00
2024-01-11T12:11:34.698Z,1.99
2024-01-11T12:14:40.222Z,2.06
2024-01-11T12:17:44.009Z,2.05
2024-01-11T12:20:47.350Z,2.17
2024-01-11T12:23:50.815Z,2.29
2024-01-11T12:26:56.954Z,2.37
2024-01-11T12:30:02.019Z,2.47
2024-01-11T12:33:05.582Z,2.50
2024-01-11T12:36:10.031Z,2.70
2024-01-11T12:39:14.413Z,2.91
2024-01-11T12:42:17.897Z,3.04
2024-01-11T12:45:24.221Z,3.12
2024-01-11T12:48:27.703Z,3.06
2024-01-11T12:51:30.564Z,3.24
2024-01-11T12:54:34.738Z,3.31
2024-01-11T12:57:37.409Z,3.24
2024-01-11T13:00:41.385Z,2.88
2024-01-11T13:03:47.686Z,2.78
2024-01-11T13:06:50.950Z,2.83
2024-01-11T13:09:53.639Z,2.82
2024-01-11T13:13:03.399Z,2.94
2024-01-11T13:16:12.657Z,3.25
2024-01-11T13:19:24.322Z,3.67
2024-01-11T13:22:30.425Z,3.61
2024-01-11T13:25:33.533Z,3.73
2024-01-11T13:28:36.371Z,3.85
2024-01-11T13:31:39.412Z,3.89
2024-01-11T13:34:43.795Z,3.85
2024-01-11T13:37:47.016Z,3.57
2024-01-11T13:40:49.943Z,3.67
2024-01-11T13:43:55.512Z,3.61
2024-01-11T13:46:58.538Z,3.51
2024-01-11T13:50:02.343Z,3.44
2024-01-11T13:53:05.630Z,3.25
2024-01-11T13:56:08.553Z,2.94
2024-01-11T13:59:11.426Z,2.88
2024-01-11T14:02:14.703Z,2.87
2024-01-11T14:05:19.580Z,2.80
2024-01-11T14:08:22.749Z,2.73
2024-01-11T14:11:26.037Z,2.41
2024-01-11T14:14:29.016Z,2.32
2024-01-11T14:17:33.097Z,2.17
2024-01-11T14:20:36.640Z,2.12
2024-01-11T14:23:39.962Z,2.07
2024-01-11T14:26:44.669Z,2.00
2024-01-11T14:29:50.671Z,1.99
2024-01-11T14:32:53.537Z,2.07
2024-01-11T14:35:56.645Z,1.99
2024-01-11T14:38:59.549Z,1.97
2024-01-11T14:42:02.602Z,1.94
2024-01-11T14:45:06.676Z,1.95
2024-01-11T14:48:10.065Z,1.86
2024-01-11T14:51:12.731Z,1.55
2024-01-11T14:54:15.833Z,1.36
2024-01-11T14:57:18.837Z,1.11
2024-01-11T15:00:21.748Z,0.91
2024-01-11T15:03:24.470Z,0.93
2024-01-11T15:06:27.465Z,0.92
2024-01-11T15:09:30.162Z,0.88
2024-01-11T15:12:33.087Z,0.77
2024-01-11T15:15:37.896Z,0.77
2024-01-11T15:18:41.997Z,0.72
2024-01-11T15:21:49.282Z,0.68
2024-01-11T15:24:55.018Z,0.60
2024-01-11T15:27:57.745Z,0.56
2024-01-11T15:31:01.146Z,0.46
2024-01-11T15:34:04.077Z,0.45
2024-01-11T15:37:08.728Z,0.32
2024-01-11T15:40:11.756Z,0.28
2024-01-11T15:43:14.709Z,0.13
2024-01-11T15:46:17.588Z,0.19
2024-01-11T15:49:20.528Z,0.37
2024-01-11T15:52:23.972Z,0.35
2024-01-11T15:55:26.883Z,0.45
2024-01-11T15:58:29.880Z,0.49
2024-01-11T16:01:34.248Z,0.45
2024-01-11T16:04:39.480Z,0.48
2024-01-11T16:07:42.192Z,0.28
2024-01-11T16:10:45.280Z,0.13
2024-01-11T16:13:49.659Z,0.14
2024-01-11T16:16:52.966Z,0.23
2024-01-11T16:19:55.569Z,0.14
2024-01-11T16:22:59.922Z,-0.03
2024-01-11T16:26:02.886Z,-0.04
2024-01-11T16:29:05.905Z,-0.04
2024-01-11T16:32:08.866Z,-0.11
